sensor_id;sensor_type;location;lat;lon;timestamp;temperature;humidity
49224;DHT22;35050;51.316;5.994;2023-02-28T00:01:22;2.50;99.90
49224;DHT22;35050;51.316;5.994;2023-02-28T00:03:48;2.60;99.90
49224;DHT22;35050;51.316;5.994;2023-02-28T00:06:14;2.60;99.90
49224;DHT22;35050;51.316;5.994;2023-02-28T00:08:40;2.60;99.90
49224;DHT22;35050;51.316;5.994;2023-02-28T00:11:08;2.50;99.90
49224;DHT22;35050;51.316;5.994;2023-02-28T00:13:36;2.60;99.90
49224;DHT22;35050;51.316;5.994;2023-02-28T00:16:13;2.60;99.90
49224;DHT22;35050;51.316;5.994;2023-02-28T00:18:40;2.60;99.90
49224;DHT22;35050;51.316;5.994;2023-02-28T00:21:06;2.50;99.90
49224;DHT22;35050;51.316;5.994;2023-02-28T00:23:32;2.60;99.90
49224;DHT22;35050;51.316;5.994;2023-02-28T00:25:58;2.50;99.90
49224;DHT22;35050;51.316;5.994;2023-02-28T00:28:24;2.50;99.90
49224;DHT22;35050;51.316;5.994;2023-02-28T00:30:50;2.40;99.90
49224;DHT22;35050;51.316;5.994;2023-02-28T00:33:16;2.40;99.90
49224;DHT22;35050;51.316;5.994;2023-02-28T00:35:42;2.40;99.90
49224;DHT22;35050;51.316;5.994;2023-02-28T00:38:07;2.30;99.90
49224;DHT22;35050;51.316;5.994;2023-02-28T00:40:33;2.40;99.90
49224;DHT22;35050;51.316;5.994;2023-02-28T00:42:59;2.50;99.90
49224;DHT22;35050;51.316;5.994;2023-02-28T00:45:24;2.20;99.90
49224;DHT22;35050;51.316;5.994;2023-02-28T00:47:50;2.20;99.90
49224;DHT22;35050;51.316;5.994;2023-02-28T00:50:20;2.20;99.90
49224;DHT22;35050;51.316;5.994;2023-02-28T00:52:46;2.30;99.90
49224;DHT22;35050;51.316;5.994;2023-02-28T00:55:12;2.30;99.90
49224;DHT22;35050;51.316;5.994;2023-02-28T00:57:37;2.30;99.90
49224;DHT22;35050;51.316;5.994;2023-02-28T01:00:04;2.20;99.90
49224;DHT22;35050;51.316;5.994;2023-02-28T01:02:30;2.30;99.90
49224;DHT22;35050;51.316;5.994;2023-02-28T01:04:56;2.20;99.90
49224;DHT22;35050;51.316;5.994;2023-02-28T01:07:23;2.20;99.90
49224;DHT22;35050;51.316;5.994;2023-02-28T01:09:48;2.20;99.90
49224;DHT22;35050;51.316;5.994;2023-02-28T01:12:14;2.10;99.90
49224;DHT22;35050;51.316;5.994;2023-02-28T01:14:40;2.20;99.90
49224;DHT22;35050;51.316;5.994;2023-02-28T01:17:06;2.20;99.90
49224;DHT22;35050;51.316;5.994;2023-02-28T01:19:32;2.00;99.90
49224;DHT22;35050;51.316;5.994;2023-02-28T01:22:01;2.10;99.90
49224;DHT22;35050;51.316;5.994;2023-02-28T01:24:26;2.10;99.90
49224;DHT22;35050;51.316;5.994;2023-02-28T01:26:52;2.30;99.90
49224;DHT22;35050;51.316;5.994;2023-02-28T01:29:18;2.10;99.90
49224;DHT22;35050;51.316;5.994;2023-02-28T01:31:43;2.00;99.90
49224;DHT22;35050;51.316;5.994;2023-02-28T01:34:09;2.00;99.90
49224;DHT22;35050;51.316;5.994;2023-02-28T01:36:35;2.10;99.90
49224;DHT22;35050;51.316;5.994;2023-02-28T01:39:01;2.10;99.90
49224;DHT22;35050;51.316;5.994;2023-02-28T01:41:31;2.00;99.90
49224;DHT22;35050;51.316;5.994;2023-02-28T01:44:01;1.90;99.90
49224;DHT22;35050;51.316;5.994;2023-02-28T01:46:33;2.00;99.90
49224;DHT22;35050;51.316;5.994;2023-02-28T01:49:00;1.90;99.90
49224;DHT22;35050;51.316;5.994;2023-02-28T01:51:44;1.80;99.90
49224;DHT22;35050;51.316;5.994;2023-02-28T01:54:16;1.90;99.90
49224;DHT22;35050;51.316;5.994;2023-02-28T01:56:55;2.00;99.90
49224;DHT22;35050;51.316;5.994;2023-02-28T01:59:27;1.90;99.90
49224;DHT22;35050;51.316;5.994;2023-02-28T02:01:54;2.00;99.90
49224;DHT22;35050;51.316;5.994;2023-02-28T02:04:22;1.90;99.90
49224;DHT22;35050;51.316;5.994;2023-02-28T02:06:49;1.80;99.90
49224;DHT22;35050;51.316;5.994;2023-02-28T02:09:15;1.90;99.90
49224;DHT22;35050;51.316;5.994;2023-02-28T02:11:42;1.90;99.90
49224;DHT22;35050;51.316;5.994;2023-02-28T02:36:07;1.60;99.90
49224;DHT22;35050;51.316;5.994;2023-02-28T02:38:55;1.60;99.90
49224;DHT22;35050;51.316;5.994;2023-02-28T02:41:54;1.60;99.90
49224;DHT22;35050;51.316;5.994;2023-02-28T02:44:28;1.60;99.90
49224;DHT22;35050;51.316;5.994;2023-02-28T02:47:17;1.50;99.90
49224;DHT22;35050;51.316;5.994;2023-02-28T02:49:51;1.60;99.90
49224;DHT22;35050;51.316;5.994;2023-02-28T02:52:20;1.60;99.90
49224;DHT22;35050;51.316;5.994;2023-02-28T02:54:48;1.50;99.90
49224;DHT22;35050;51.316;5.994;2023-02-28T02:57:30;1.50;99.90
49224;DHT22;35050;51.316;5.994;2023-02-28T03:00:00;1.50;99.90
49224;DHT22;35050;51.316;5.994;2023-02-28T03:02:28;1.50;99.90
49224;DHT22;35050;51.316;5.994;2023-02-28T03:05:02;1.60;99.90
49224;DHT22;35050;51.316;5.994;2023-02-28T03:07:28;1.50;99.90
49224;DHT22;35050;51.316;5.994;2023-02-28T03:09:55;1.50;99.90
49224;DHT22;35050;51.316;5.994;2023-02-28T03:12:25;1.50;99.90
49224;DHT22;35050;51.316;5.994;2023-02-28T03:15:11;1.30;99.90
49224;DHT22;35050;51.316;5.994;2023-02-28T03:18:04;1.40;99.90
49224;DHT22;35050;51.316;5.994;2023-02-28T03:23:19;1.50;99.90
49224;DHT22;35050;51.316;5.994;2023-02-28T03:26:06;1.40;99.90
49224;DHT22;35050;51.316;5.994;2023-02-28T03:28:43;1.40;99.90
49224;DHT22;35050;51.316;5.994;2023-02-28T03:31:21;1.40;99.90
49224;DHT22;35050;51.316;5.994;2023-02-28T03:33:54;1.50;99.90
49224;DHT22;35050;51.316;5.994;2023-02-28T03:36:28;1.40;99.90
49224;DHT22;35050;51.316;5.994;2023-02-28T03:39:01;1.30;99.90
49224;DHT22;35050;51.316;5.994;2023-02-28T03:41:52;1.30;99.90
49224;DHT22;35050;51.316;5.994;2023-02-28T03:47:29;1.30;99.90
49224;DHT22;35050;51.316;5.994;2023-02-28T03:52:32;1.30;99.90
49224;DHT22;35050;51.316;5.994;2023-02-28T03:55:02;1.30;99.90
49224;DHT22;35050;51.316;5.994;2023-02-28T03:57:53;1.30;99.90
49224;DHT22;35050;51.316;5.994;2023-02-28T04:00:28;1.30;99.90
49224;DHT22;35050;51.316;5.994;2023-02-28T04:02:55;1.20;99.90
49224;DHT22;35050;51.316;5.994;2023-02-28T04:05:22;1.10;99.90
49224;DHT22;35050;51.316;5.994;2023-02-28T04:07:48;1.10;99.90
49224;DHT22;35050;51.316;5.994;2023-02-28T04:10:15;1.10;99.90
49224;DHT22;35050;51.316;5.994;2023-02-28T04:12:40;1.10;99.90
49224;DHT22;35050;51.316;5.994;2023-02-28T04:15:07;1.20;99.90
49224;DHT22;35050;51.316;5.994;2023-02-28T04:17:33;1.00;99.90
49224;DHT22;35050;51.316;5.994;2023-02-28T04:19:58;1.00;99.90
49224;DHT22;35050;51.316;5.994;2023-02-28T04:22:24;1.00;99.90
49224;DHT22;35050;51.316;5.994;2023-02-28T04:24:52;1.20;99.90
49224;DHT22;35050;51.316;5.994;2023-02-28T04:27:20;1.20;99.90
49224;DHT22;35050;51.316;5.994;2023-02-28T04:29:46;1.10;99.90
49224;DHT22;35050;51.316;5.994;2023-02-28T04:32:12;1.00;99.90
49224;DHT22;35050;51.316;5.994;2023-02-28T04:34:38;1.10;99.90
49224;DHT22;35050;51.316;5.994;2023-02-28T04:37:04;0.90;99.90
49224;DHT22;35050;51.316;5.994;2023-02-28T04:39:34;0.90;99.90
49224;DHT22;35050;51.316;5.994;2023-02-28T04:42:00;0.90;99.90
49224;DHT22;35050;51.316;5.994;2023-02-28T04:44:26;0.90;99.90
49224;DHT22;35050;51.316;5.994;2023-02-28T04:46:51;0.80;99.90
49224;DHT22;35050;51.316;5.994;2023-02-28T04:49:17;0.90;99.90
49224;DHT22;35050;51.316;5.994;2023-02-28T04:51:43;0.90;99.90
49224;DHT22;35050;51.316;5.994;2023-02-28T04:54:08;0.90;99.90
49224;DHT22;35050;51.316;5.994;2023-02-28T04:56:34;0.90;99.90
49224;DHT22;35050;51.316;5.994;2023-02-28T04:58:59;1.00;99.90
49224;DHT22;35050;51.316;5.994;2023-02-28T05:01:28;0.80;99.90
49224;DHT22;35050;51.316;5.994;2023-02-28T05:03:56;0.70;99.90
49224;DHT22;35050;51.316;5.994;2023-02-28T05:06:25;0.80;99.90
49224;DHT22;35050;51.316;5.994;2023-02-28T05:08:53;0.80;99.90
49224;DHT22;35050;51.316;5.994;2023-02-28T05:14:09;0.70;99.90
49224;DHT22;35050;51.316;5.994;2023-02-28T05:16:36;0.60;99.90
49224;DHT22;35050;51.316;5.994;2023-02-28T05:19:01;0.60;99.90
49224;DHT22;35050;51.316;5.994;2023-02-28T05:21:52;0.50;99.90
49224;DHT22;35050;51.316;5.994;2023-02-28T05:24:19;0.70;99.90
49224;DHT22;35050;51.316;5.994;2023-02-28T05:26:49;0.50;99.90
49224;DHT22;35050;51.316;5.994;2023-02-28T05:29:16;0.70;99.90
49224;DHT22;35050;51.316;5.994;2023-02-28T05:31:42;0.60;99.90
49224;DHT22;35050;51.316;5.994;2023-02-28T05:34:08;0.60;99.90
49224;DHT22;35050;51.316;5.994;2023-02-28T05:36:36;0.60;99.90
49224;DHT22;35050;51.316;5.994;2023-02-28T05:39:02;0.50;99.90
49224;DHT22;35050;51.316;5.994;2023-02-28T05:41:29;0.50;99.90
49224;DHT22;35050;51.316;5.994;2023-02-28T05:43:55;0.60;99.90
49224;DHT22;35050;51.316;5.994;2023-02-28T05:46:22;0.50;99.90
49224;DHT22;35050;51.316;5.994;2023-02-28T05:48:48;0.50;99.90
49224;DHT22;35050;51.316;5.994;2023-02-28T05:51:14;0.60;99.90
49224;DHT22;35050;51.316;5.994;2023-02-28T05:53:40;0.60;99.90
49224;DHT22;35050;51.316;5.994;2023-02-28T05:56:06;0.50;99.90
49224;DHT22;35050;51.316;5.994;2023-02-28T05:58:31;0.40;99.90
49224;DHT22;35050;51.316;5.994;2023-02-28T06:00:58;0.90;99.90
49224;DHT22;35050;51.316;5.994;2023-02-28T06:03:24;0.60;99.90
49224;DHT22;35050;51.316;5.994;2023-02-28T06:05:50;0.70;99.90
49224;DHT22;35050;51.316;5.994;2023-02-28T06:08:16;0.60;99.90
49224;DHT22;35050;51.316;5.994;2023-02-28T06:10:41;0.50;99.90
49224;DHT22;35050;51.316;5.994;2023-02-28T06:13:07;0.40;99.90
49224;DHT22;35050;51.316;5.994;2023-02-28T06:15:33;0.50;99.90
49224;DHT22;35050;51.316;5.994;2023-02-28T06:17:59;0.50;99.90
49224;DHT22;35050;51.316;5.994;2023-02-28T06:20:26;0.40;99.90
49224;DHT22;35050;51.316;5.994;2023-02-28T06:22:58;0.40;99.90
49224;DHT22;35050;51.316;5.994;2023-02-28T06:25:27;0.50;99.90
49224;DHT22;35050;51.316;5.994;2023-02-28T06:27:53;0.40;99.90
49224;DHT22;35050;51.316;5.994;2023-02-28T06:30:19;0.40;99.90
49224;DHT22;35050;51.316;5.994;2023-02-28T06:32:49;0.50;99.90
49224;DHT22;35050;51.316;5.994;2023-02-28T06:35:14;0.50;99.90
49224;DHT22;35050;51.316;5.994;2023-02-28T06:37:40;0.40;99.90
49224;DHT22;35050;51.316;5.994;2023-02-28T06:40:08;0.20;99.90
49224;DHT22;35050;51.316;5.994;2023-02-28T06:42:34;0.30;99.90
49224;DHT22;35050;51.316;5.994;2023-02-28T06:45:00;0.40;99.90
49224;DHT22;35050;51.316;5.994;2023-02-28T06:47:30;0.40;99.90
49224;DHT22;35050;51.316;5.994;2023-02-28T06:49:55;0.30;99.90
49224;DHT22;35050;51.316;5.994;2023-02-28T06:52:21;0.40;99.90
49224;DHT22;35050;51.316;5.994;2023-02-28T06:54:47;0.40;99.90
49224;DHT22;35050;51.316;5.994;2023-02-28T06:57:28;0.50;99.90
49224;DHT22;35050;51.316;5.994;2023-02-28T06:59:59;0.40;99.90
49224;DHT22;35050;51.316;5.994;2023-02-28T07:02:25;0.50;99.90
49224;DHT22;35050;51.316;5.994;2023-02-28T07:04:51;0.40;99.90
49224;DHT22;35050;51.316;5.994;2023-02-28T07:07:16;0.50;99.90
49224;DHT22;35050;51.316;5.994;2023-02-28T07:09:42;0.40;99.90
49224;DHT22;35050;51.316;5.994;2023-02-28T07:12:08;0.50;99.90
49224;DHT22;35050;51.316;5.994;2023-02-28T07:14:33;0.60;99.90
49224;DHT22;35050;51.316;5.994;2023-02-28T07:17:01;0.70;99.90
49224;DHT22;35050;51.316;5.994;2023-02-28T07:19:27;0.60;99.90
49224;DHT22;35050;51.316;5.994;2023-02-28T07:21:53;0.80;99.90
49224;DHT22;35050;51.316;5.994;2023-02-28T07:24:19;0.80;99.90
49224;DHT22;35050;51.316;5.994;2023-02-28T07:26:44;0.70;99.90
49224;DHT22;35050;51.316;5.994;2023-02-28T07:29:10;0.80;99.90
49224;DHT22;35050;51.316;5.994;2023-02-28T07:31:37;0.60;99.90
49224;DHT22;35050;51.316;5.994;2023-02-28T07:34:03;0.60;99.90
49224;DHT22;35050;51.316;5.994;2023-02-28T07:36:29;0.80;99.90
49224;DHT22;35050;51.316;5.994;2023-02-28T07:38:54;0.90;99.90
49224;DHT22;35050;51.316;5.994;2023-02-28T07:41:22;1.00;99.90
49224;DHT22;35050;51.316;5.994;2023-02-28T07:43:49;1.10;99.90
49224;DHT22;35050;51.316;5.994;2023-02-28T07:46:15;1.00;99.90
49224;DHT22;35050;51.316;5.994;2023-02-28T07:48:43;1.10;99.90
49224;DHT22;35050;51.316;5.994;2023-02-28T07:51:09;1.20;99.90
49224;DHT22;35050;51.316;5.994;2023-02-28T07:53:35;1.30;99.90
49224;DHT22;35050;51.316;5.994;2023-02-28T07:56:02;1.30;99.90
49224;DHT22;35050;51.316;5.994;2023-02-28T07:58:29;1.40;99.90
49224;DHT22;35050;51.316;5.994;2023-02-28T08:00:56;1.30;99.90
49224;DHT22;35050;51.316;5.994;2023-02-28T08:03:23;1.40;99.90
49224;DHT22;35050;51.316;5.994;2023-02-28T08:05:49;1.50;99.90
49224;DHT22;35050;51.316;5.994;2023-02-28T08:08:15;1.70;99.90
49224;DHT22;35050;51.316;5.994;2023-02-28T08:10:41;1.70;99.90
49224;DHT22;35050;51.316;5.994;2023-02-28T08:13:07;1.80;99.90
49224;DHT22;35050;51.316;5.994;2023-02-28T08:15:33;2.00;99.90
49224;DHT22;35050;51.316;5.994;2023-02-28T08:17:59;2.10;99.90
49224;DHT22;35050;51.316;5.994;2023-02-28T08:20:25;2.10;99.90
49224;DHT22;35050;51.316;5.994;2023-02-28T08:22:51;2.40;99.90
49224;DHT22;35050;51.316;5.994;2023-02-28T08:25:17;2.50;99.90
49224;DHT22;35050;51.316;5.994;2023-02-28T08:27:42;2.70;99.90
49224;DHT22;35050;51.316;5.994;2023-02-28T08:30:11;2.90;99.90
49224;DHT22;35050;51.316;5.994;2023-02-28T08:32:37;2.80;99.90
49224;DHT22;35050;51.316;5.994;2023-02-28T08:35:03;2.60;99.90
49224;DHT22;35050;51.316;5.994;2023-02-28T08:37:29;2.60;99.90
49224;DHT22;35050;51.316;5.994;2023-02-28T08:39:54;2.70;99.90
49224;DHT22;35050;51.316;5.994;2023-02-28T08:42:20;2.80;99.90
49224;DHT22;35050;51.316;5.994;2023-02-28T08:44:46;2.80;99.90
49224;DHT22;35050;51.316;5.994;2023-02-28T08:47:12;3.00;99.90
49224;DHT22;35050;51.316;5.994;2023-02-28T08:49:38;3.00;99.90
49224;DHT22;35050;51.316;5.994;2023-02-28T08:52:04;2.90;99.90
49224;DHT22;35050;51.316;5.994;2023-02-28T08:54:29;3.00;99.90
49224;DHT22;35050;51.316;5.994;2023-02-28T08:56:56;3.20;99.90
49224;DHT22;35050;51.316;5.994;2023-02-28T08:59:22;3.30;99.90
49224;DHT22;35050;51.316;5.994;2023-02-28T09:01:48;3.20;99.90
49224;DHT22;35050;51.316;5.994;2023-02-28T09:04:14;3.30;99.90
49224;DHT22;35050;51.316;5.994;2023-02-28T09:06:39;3.10;99.90
49224;DHT22;35050;51.316;5.994;2023-02-28T09:09:05;3.40;99.90
49224;DHT22;35050;51.316;5.994;2023-02-28T09:11:33;3.50;99.90
49224;DHT22;35050;51.316;5.994;2023-02-28T09:13:59;3.70;99.90
49224;DHT22;35050;51.316;5.994;2023-02-28T09:16:26;3.80;98.90
49224;DHT22;35050;51.316;5.994;2023-02-28T09:18:52;3.80;97.80
49224;DHT22;35050;51.316;5.994;2023-02-28T09:21:18;4.10;97.00
49224;DHT22;35050;51.316;5.994;2023-02-28T09:23:46;4.40;96.20
49224;DHT22;35050;51.316;5.994;2023-02-28T09:26:15;4.70;96.50
49224;DHT22;35050;51.316;5.994;2023-02-28T09:28:41;4.70;94.00
49224;DHT22;35050;51.316;5.994;2023-02-28T09:31:13;4.30;93.50
49224;DHT22;35050;51.316;5.994;2023-02-28T09:33:39;4.60;93.60
49224;DHT22;35050;51.316;5.994;2023-02-28T09:36:06;4.70;93.40
49224;DHT22;35050;51.316;5.994;2023-02-28T09:38:32;4.90;92.90
49224;DHT22;35050;51.316;5.994;2023-02-28T09:41:03;4.90;91.90
49224;DHT22;35050;51.316;5.994;2023-02-28T09:43:34;4.80;90.70
49224;DHT22;35050;51.316;5.994;2023-02-28T09:46:12;4.70;90.30
49224;DHT22;35050;51.316;5.994;2023-02-28T09:48:41;5.40;91.50
49224;DHT22;35050;51.316;5.994;2023-02-28T09:53:53;4.90;87.10
49224;DHT22;35050;51.316;5.994;2023-02-28T09:56:28;5.30;88.10
49224;DHT22;35050;51.316;5.994;2023-02-28T09:59:22;5.30;88.90
49224;DHT22;35050;51.316;5.994;2023-02-28T10:02:01;5.30;90.10
49224;DHT22;35050;51.316;5.994;2023-02-28T10:04:53;5.80;89.50
49224;DHT22;35050;51.316;5.994;2023-02-28T10:09:58;5.70;87.70
49224;DHT22;35050;51.316;5.994;2023-02-28T10:12:26;5.90;86.90
49224;DHT22;35050;51.316;5.994;2023-02-28T10:14:55;5.80;87.30
49224;DHT22;35050;51.316;5.994;2023-02-28T10:17:39;5.90;87.00
49224;DHT22;35050;51.316;5.994;2023-02-28T10:20:12;6.50;87.70
49224;DHT22;35050;51.316;5.994;2023-02-28T10:23:10;6.80;85.60
49224;DHT22;35050;51.316;5.994;2023-02-28T10:25:38;7.80;85.80
49224;DHT22;35050;51.316;5.994;2023-02-28T10:28:17;7.40;81.90
49224;DHT22;35050;51.316;5.994;2023-02-28T10:30:48;7.60;83.10
49224;DHT22;35050;51.316;5.994;2023-02-28T10:33:33;7.50;83.40
49224;DHT22;35050;51.316;5.994;2023-02-28T10:36:00;7.50;80.30
49224;DHT22;35050;51.316;5.994;2023-02-28T10:38:34;7.50;82.40
49224;DHT22;35050;51.316;5.994;2023-02-28T10:43:29;7.80;79.10
49224;DHT22;35050;51.316;5.994;2023-02-28T10:48:41;6.90;78.70
49224;DHT22;35050;51.316;5.994;2023-02-28T10:51:22;7.30;78.30
49224;DHT22;35050;51.316;5.994;2023-02-28T10:53:53;7.30;76.90
49224;DHT22;35050;51.316;5.994;2023-02-28T10:56:22;7.20;77.90
49224;DHT22;35050;51.316;5.994;2023-02-28T10:59:02;7.00;79.10
49224;DHT22;35050;51.316;5.994;2023-02-28T11:01:43;7.00;78.90
49224;DHT22;35050;51.316;5.994;2023-02-28T11:06:58;7.30;79.50
49224;DHT22;35050;51.316;5.994;2023-02-28T11:09:34;7.70;78.10
49224;DHT22;35050;51.316;5.994;2023-02-28T11:12:02;7.40;77.70
49224;DHT22;35050;51.316;5.994;2023-02-28T11:14:31;7.70;78.00
49224;DHT22;35050;51.316;5.994;2023-02-28T11:17:22;8.10;77.60
49224;DHT22;35050;51.316;5.994;2023-02-28T11:19:57;8.10;77.10
49224;DHT22;35050;51.316;5.994;2023-02-28T11:22:26;8.10;77.90
49224;DHT22;35050;51.316;5.994;2023-02-28T11:24:56;8.20;78.10
49224;DHT22;35050;51.316;5.994;2023-02-28T11:29:59;7.70;78.80
49224;DHT22;35050;51.316;5.994;2023-02-28T11:32:27;7.30;77.50
49224;DHT22;35050;51.316;5.994;2023-02-28T11:37:35;8.10;79.40
49224;DHT22;35050;51.316;5.994;2023-02-28T11:40:02;8.30;78.80
49224;DHT22;35050;51.316;5.994;2023-02-28T11:48:58;8.60;78.20
49224;DHT22;35050;51.316;5.994;2023-02-28T11:51:34;9.00;76.90
49224;DHT22;35050;51.316;5.994;2023-02-28T11:56:58;9.90;76.90
49224;DHT22;35050;51.316;5.994;2023-02-28T11:59:29;10.00;74.40
49224;DHT22;35050;51.316;5.994;2023-02-28T12:20:42;8.70;74.80
49224;DHT22;35050;51.316;5.994;2023-02-28T12:28:31;9.10;74.20
49224;DHT22;35050;51.316;5.994;2023-02-28T12:31:04;9.00;72.30
49224;DHT22;35050;51.316;5.994;2023-02-28T12:33:59;9.50;73.60
49224;DHT22;35050;51.316;5.994;2023-02-28T12:36:27;10.00;73.80
49224;DHT22;35050;51.316;5.994;2023-02-28T12:39:04;9.30;72.90
49224;DHT22;35050;51.316;5.994;2023-02-28T12:41:45;9.90;71.30
49224;DHT22;35050;51.316;5.994;2023-02-28T12:44:19;9.10;72.10
49224;DHT22;35050;51.316;5.994;2023-02-28T12:46:51;10.00;71.40
49224;DHT22;35050;51.316;5.994;2023-02-28T12:49:31;9.30;70.80
49224;DHT22;35050;51.316;5.994;2023-02-28T12:52:04;8.80;72.10
49224;DHT22;35050;51.316;5.994;2023-02-28T12:54:33;9.40;70.70
49224;DHT22;35050;51.316;5.994;2023-02-28T13:00:28;9.90;72.30
49224;DHT22;35050;51.316;5.994;2023-02-28T13:06:14;10.30;69.50
49224;DHT22;35050;51.316;5.994;2023-02-28T13:11:47;11.20;68.70
49224;DHT22;35050;51.316;5.994;2023-02-28T13:14:29;10.80;67.30
49224;DHT22;35050;51.316;5.994;2023-02-28T13:19:37;11.10;67.00
49224;DHT22;35050;51.316;5.994;2023-02-28T13:22:03;11.00;67.00
49224;DHT22;35050;51.316;5.994;2023-02-28T13:29:36;12.00;66.10
49224;DHT22;35050;51.316;5.994;2023-02-28T13:34:35;12.10;66.40
49224;DHT22;35050;51.316;5.994;2023-02-28T13:40:06;12.30;64.90
49224;DHT22;35050;51.316;5.994;2023-02-28T13:42:49;12.70;65.50
49224;DHT22;35050;51.316;5.994;2023-02-28T13:45:27;11.40;63.90
49224;DHT22;35050;51.316;5.994;2023-02-28T13:48:01;12.70;65.50
49224;DHT22;35050;51.316;5.994;2023-02-28T13:50:33;13.20;63.50
49224;DHT22;35050;51.316;5.994;2023-02-28T13:58:17;11.40;62.30
49224;DHT22;35050;51.316;5.994;2023-02-28T14:01:07;11.20;64.30
49224;DHT22;35050;51.316;5.994;2023-02-28T14:03:50;12.50;64.30
49224;DHT22;35050;51.316;5.994;2023-02-28T14:06:29;11.90;62.60
49224;DHT22;35050;51.316;5.994;2023-02-28T14:11:42;11.20;64.20
49224;DHT22;35050;51.316;5.994;2023-02-28T14:16:56;11.40;64.70
49224;DHT22;35050;51.316;5.994;2023-02-28T14:19:28;11.50;64.20
49224;DHT22;35050;51.316;5.994;2023-02-28T14:22:38;11.40;63.00
49224;DHT22;35050;51.316;5.994;2023-02-28T14:25:23;10.80;64.80
49224;DHT22;35050;51.316;5.994;2023-02-28T14:30:57;11.40;63.90
49224;DHT22;35050;51.316;5.994;2023-02-28T14:33:39;11.30;66.10
49224;DHT22;35050;51.316;5.994;2023-02-28T14:36:41;11.50;65.20
49224;DHT22;35050;51.316;5.994;2023-02-28T14:39:17;10.40;65.50
49224;DHT22;35050;51.316;5.994;2023-02-28T14:41:45;10.50;66.00
49224;DHT22;35050;51.316;5.994;2023-02-28T14:46:44;10.80;65.80
49224;DHT22;35050;51.316;5.994;2023-02-28T14:49:19;11.20;65.80
49224;DHT22;35050;51.316;5.994;2023-02-28T14:51:50;10.90;65.20
49224;DHT22;35050;51.316;5.994;2023-02-28T14:54:26;10.80;65.70
49224;DHT22;35050;51.316;5.994;2023-02-28T14:56:52;10.70;65.70
49224;DHT22;35050;51.316;5.994;2023-02-28T14:59:38;10.00;65.40
49224;DHT22;35050;51.316;5.994;2023-02-28T15:02:19;10.30;67.00
49224;DHT22;35050;51.316;5.994;2023-02-28T15:05:00;9.70;66.30
49224;DHT22;35050;51.316;5.994;2023-02-28T15:07:26;10.90;67.00
49224;DHT22;35050;51.316;5.994;2023-02-28T15:12:37;9.40;68.90
49224;DHT22;35050;51.316;5.994;2023-02-28T15:15:03;9.50;68.80
49224;DHT22;35050;51.316;5.994;2023-02-28T15:17:29;9.50;69.00
49224;DHT22;35050;51.316;5.994;2023-02-28T15:19:55;8.90;69.50
49224;DHT22;35050;51.316;5.994;2023-02-28T15:22:30;9.30;69.90
49224;DHT22;35050;51.316;5.994;2023-02-28T15:24:56;9.20;69.50
49224;DHT22;35050;51.316;5.994;2023-02-28T15:27:31;9.70;70.50
49224;DHT22;35050;51.316;5.994;2023-02-28T15:30:12;9.10;69.10
49224;DHT22;35050;51.316;5.994;2023-02-28T15:32:39;9.40;70.50
49224;DHT22;35050;51.316;5.994;2023-02-28T15:35:29;8.60;71.00
49224;DHT22;35050;51.316;5.994;2023-02-28T15:38:25;8.50;71.40
49224;DHT22;35050;51.316;5.994;2023-02-28T15:40:56;8.60;73.10
49224;DHT22;35050;51.316;5.994;2023-02-28T15:43:30;8.90;72.80
49224;DHT22;35050;51.316;5.994;2023-02-28T15:46:12;9.00;72.40
49224;DHT22;35050;51.316;5.994;2023-02-28T15:48:52;9.30;72.20
49224;DHT22;35050;51.316;5.994;2023-02-28T15:51:22;8.80;72.00
49224;DHT22;35050;51.316;5.994;2023-02-28T15:54:00;9.30;73.00
49224;DHT22;35050;51.316;5.994;2023-02-28T15:56:29;9.10;73.40
49224;DHT22;35050;51.316;5.994;2023-02-28T15:59:02;8.80;74.20
49224;DHT22;35050;51.316;5.994;2023-02-28T16:01:32;9.20;73.70
49224;DHT22;35050;51.316;5.994;2023-02-28T16:04:11;8.80;73.90
49224;DHT22;35050;51.316;5.994;2023-02-28T16:06:42;9.10;74.10
49224;DHT22;35050;51.316;5.994;2023-02-28T16:09:15;8.70;74.30
49224;DHT22;35050;51.316;5.994;2023-02-28T16:11:47;9.00;74.20
49224;DHT22;35050;51.316;5.994;2023-02-28T16:14:20;8.30;75.40
49224;DHT22;35050;51.316;5.994;2023-02-28T16:16:51;9.40;82.70
49224;DHT22;35050;51.316;5.994;2023-02-28T16:19:17;8.40;76.70
49224;DHT22;35050;51.316;5.994;2023-02-28T16:21:43;8.30;77.50
49224;DHT22;35050;51.316;5.994;2023-02-28T16:24:09;8.20;77.40
49224;DHT22;35050;51.316;5.994;2023-02-28T16:26:35;8.00;77.70
49224;DHT22;35050;51.316;5.994;2023-02-28T16:29:03;7.70;78.30
49224;DHT22;35050;51.316;5.994;2023-02-28T16:31:29;7.40;78.90
49224;DHT22;35050;51.316;5.994;2023-02-28T16:33:55;7.60;79.30
49224;DHT22;35050;51.316;5.994;2023-02-28T16:36:23;7.30;80.20
49224;DHT22;35050;51.316;5.994;2023-02-28T16:38:50;7.70;79.90
49224;DHT22;35050;51.316;5.994;2023-02-28T16:41:22;7.60;79.90
49224;DHT22;35050;51.316;5.994;2023-02-28T16:43:51;7.60;79.60
49224;DHT22;35050;51.316;5.994;2023-02-28T16:46:17;7.70;80.40
49224;DHT22;35050;51.316;5.994;2023-02-28T16:48:44;7.90;80.50
49224;DHT22;35050;51.316;5.994;2023-02-28T16:51:14;8.00;80.00
49224;DHT22;35050;51.316;5.994;2023-02-28T16:53:41;7.90;80.30
49224;DHT22;35050;51.316;5.994;2023-02-28T16:56:16;7.60;80.80
49224;DHT22;35050;51.316;5.994;2023-02-28T16:58:43;7.60;81.10
49224;DHT22;35050;51.316;5.994;2023-02-28T17:01:08;7.30;80.60
49224;DHT22;35050;51.316;5.994;2023-02-28T17:03:34;6.90;82.90
49224;DHT22;35050;51.316;5.994;2023-02-28T17:06:02;7.20;82.90
49224;DHT22;35050;51.316;5.994;2023-02-28T17:08:28;7.20;82.80
49224;DHT22;35050;51.316;5.994;2023-02-28T17:10:55;7.00;83.10
49224;DHT22;35050;51.316;5.994;2023-02-28T17:13:20;7.30;83.50
49224;DHT22;35050;51.316;5.994;2023-02-28T17:15:46;7.20;82.80
49224;DHT22;35050;51.316;5.994;2023-02-28T17:18:18;7.30;83.50
49224;DHT22;35050;51.316;5.994;2023-02-28T17:20:46;7.20;84.00
49224;DHT22;35050;51.316;5.994;2023-02-28T17:23:12;7.20;84.20
49224;DHT22;35050;51.316;5.994;2023-02-28T17:25:38;6.90;83.60
49224;DHT22;35050;51.316;5.994;2023-02-28T17:28:04;7.10;84.40
49224;DHT22;35050;51.316;5.994;2023-02-28T17:30:33;7.20;84.80
49224;DHT22;35050;51.316;5.994;2023-02-28T17:32:59;7.30;84.40
49224;DHT22;35050;51.316;5.994;2023-02-28T17:35:26;7.00;85.20
49224;DHT22;35050;51.316;5.994;2023-02-28T17:37:52;7.10;86.00
49224;DHT22;35050;51.316;5.994;2023-02-28T17:40:23;7.10;85.40
49224;DHT22;35050;51.316;5.994;2023-02-28T17:42:48;7.00;85.30
49224;DHT22;35050;51.316;5.994;2023-02-28T17:45:15;7.00;85.80
49224;DHT22;35050;51.316;5.994;2023-02-28T17:47:43;7.00;86.10
49224;DHT22;35050;51.316;5.994;2023-02-28T17:50:16;7.10;86.40
49224;DHT22;35050;51.316;5.994;2023-02-28T17:52:41;6.90;87.80
49224;DHT22;35050;51.316;5.994;2023-02-28T17:55:08;7.00;87.30
49224;DHT22;35050;51.316;5.994;2023-02-28T17:57:34;7.00;86.50
49224;DHT22;35050;51.316;5.994;2023-02-28T18:00:00;7.00;86.20
49224;DHT22;35050;51.316;5.994;2023-02-28T18:02:25;7.00;86.90
49224;DHT22;35050;51.316;5.994;2023-02-28T18:04:52;6.90;87.20
49224;DHT22;35050;51.316;5.994;2023-02-28T18:07:19;7.00;87.60
49224;DHT22;35050;51.316;5.994;2023-02-28T18:09:45;6.90;87.50